sensor_id;sensor_type;location;lat;lon;timestamp;P1;durP1;ratioP1;P2;durP2;ratioP2
44662;SDS011;30381;52.754;18.258;2023-05-21T00:09:38;25.40;;;17.50;;
44662;SDS011;30381;52.754;18.258;2023-05-21T00:12:13;24.80;;;17.80;;
44662;SDS011;30381;52.754;18.258;2023-05-21T00:14:51;29.50;;;19.90;;
44662;SDS011;30381;52.754;18.258;2023-05-21T00:17:35;26.60;;;19.40;;
44662;SDS011;30381;52.754;18.258;2023-05-21T00:20:09;30.10;;;19.20;;
44662;SDS011;30381;52.754;18.258;2023-05-21T00:22:56;27.50;;;18.10;;
44662;SDS011;30381;52.754;18.258;2023-05-21T00:25:29;26.00;;;18.40;;
44662;SDS011;30381;52.754;18.258;2023-05-21T00:28:04;27.20;;;18.30;;
44662;SDS011;30381;52.754;18.258;2023-05-21T00:30:39;26.90;;;18.50;;
44662;SDS011;30381;52.754;18.258;2023-05-21T00:33:17;24.80;;;16.90;;
44662;SDS011;30381;52.754;18.258;2023-05-21T00:38:35;25.50;;;17.30;;
44662;SDS011;30381;52.754;18.258;2023-05-21T00:41:54;25.10;;;16.20;;
44662;SDS011;30381;52.754;18.258;2023-05-21T00:44:26;24.10;;;17.40;;
44662;SDS011;30381;52.754;18.258;2023-05-21T00:47:00;24.80;;;17.20;;
44662;SDS011;30381;52.754;18.258;2023-05-21T00:50:06;25.40;;;18.30;;
44662;SDS011;30381;52.754;18.258;2023-05-21T00:53:12;27.70;;;21.10;;
44662;SDS011;30381;52.754;18.258;2023-05-21T00:55:43;27.00;;;20.10;;
44662;SDS011;30381;52.754;18.258;2023-05-21T00:58:42;27.70;;;18.50;;
44662;SDS011;30381;52.754;18.258;2023-05-21T01:01:32;28.50;;;18.40;;
44662;SDS011;30381;52.754;18.258;2023-05-21T01:04:55;25.60;;;17.30;;
44662;SDS011;30381;52.754;18.258;2023-05-21T01:07:45;23.70;;;17.00;;
44662;SDS011;30381;52.754;18.258;2023-05-21T01:10:13;26.70;;;17.50;;
44662;SDS011;30381;52.754;18.258;2023-05-21T01:12:41;25.10;;;17.30;;
44662;SDS011;30381;52.754;18.258;2023-05-21T01:15:42;22.90;;;16.30;;
44662;SDS011;30381;52.754;18.258;2023-05-21T01:18:41;22.10;;;16.10;;
44662;SDS011;30381;52.754;18.258;2023-05-21T01:22:07;22.80;;;16.20;;
44662;SDS011;30381;52.754;18.258;2023-05-21T01:25:21;23.00;;;16.40;;
44662;SDS011;30381;52.754;18.258;2023-05-21T01:28:12;22.30;;;16.80;;
44662;SDS011;30381;52.754;18.258;2023-05-21T01:32:16;22.50;;;16.00;;
44662;SDS011;30381;52.754;18.258;2023-05-21T01:35:25;26.60;;;17.50;;
44662;SDS011;30381;52.754;18.258;2023-05-21T01:41:27;27.90;;;17.70;;
44662;SDS011;30381;52.754;18.258;2023-05-21T01:43:58;25.50;;;17.10;;
44662;SDS011;30381;52.754;18.258;2023-05-21T01:46:29;27.00;;;17.50;;
44662;SDS011;30381;52.754;18.258;2023-05-21T01:49:08;26.30;;;17.30;;
44662;SDS011;30381;52.754;18.258;2023-05-21T01:51:37;25.50;;;17.30;;
44662;SDS011;30381;52.754;18.258;2023-05-21T01:54:05;28.90;;;17.90;;
44662;SDS011;30381;52.754;18.258;2023-05-21T01:56:33;29.60;;;18.00;;
44662;SDS011;30381;52.754;18.258;2023-05-21T01:59:02;30.00;;;18.20;;
44662;SDS011;30381;52.754;18.258;2023-05-21T02:01:31;26.40;;;17.20;;
44662;SDS011;30381;52.754;18.258;2023-05-21T02:03:59;26.10;;;18.00;;
44662;SDS011;30381;52.754;18.258;2023-05-21T02:06:36;31.40;;;18.50;;
44662;SDS011;30381;52.754;18.258;2023-05-21T02:09:04;27.70;;;17.80;;
44662;SDS011;30381;52.754;18.258;2023-05-21T02:11:32;25.10;;;17.10;;
44662;SDS011;30381;52.754;18.258;2023-05-21T02:14:11;26.20;;;17.50;;
44662;SDS011;30381;52.754;18.258;2023-05-21T02:16:48;29.70;;;17.30;;
44662;SDS011;30381;52.754;18.258;2023-05-21T02:19:28;30.10;;;19.50;;
44662;SDS011;30381;52.754;18.258;2023-05-21T02:22:04;25.90;;;17.10;;
44662;SDS011;30381;52.754;18.258;2023-05-21T02:27:34;31.60;;;18.20;;
44662;SDS011;30381;52.754;18.258;2023-05-21T02:30:09;26.20;;;17.30;;
44662;SDS011;30381;52.754;18.258;2023-05-21T02:32:43;28.60;;;18.30;;
44662;SDS011;30381;52.754;18.258;2023-05-21T02:35:11;30.00;;;18.40;;
44662;SDS011;30381;52.754;18.258;2023-05-21T02:37:39;28.30;;;17.60;;
44662;SDS011;30381;52.754;18.258;2023-05-21T02:40:07;24.90;;;18.20;;
44662;SDS011;30381;52.754;18.258;2023-05-21T02:42:54;25.10;;;16.10;;
44662;SDS011;30381;52.754;18.258;2023-05-21T02:45:21;27.30;;;17.60;;
44662;SDS011;30381;52.754;18.258;2023-05-21T02:47:49;25.50;;;16.50;;
44662;SDS011;30381;52.754;18.258;2023-05-21T02:50:16;27.90;;;16.40;;
44662;SDS011;30381;52.754;18.258;2023-05-21T02:53:20;25.80;;;15.50;;
44662;SDS011;30381;52.754;18.258;2023-05-21T02:56:03;23.50;;;16.10;;
44662;SDS011;30381;52.754;18.258;2023-05-21T02:58:37;25.70;;;15.60;;
44662;SDS011;30381;52.754;18.258;2023-05-21T03:01:25;22.20;;;15.20;;
44662;SDS011;30381;52.754;18.258;2023-05-21T03:03:52;24.20;;;15.50;;
44662;SDS011;30381;52.754;18.258;2023-05-21T03:06:30;28.50;;;17.10;;
44662;SDS011;30381;52.754;18.258;2023-05-21T03:08:57;27.70;;;16.90;;
44662;SDS011;30381;52.754;18.258;2023-05-21T03:11:26;28.50;;;17.30;;
44662;SDS011;30381;52.754;18.258;2023-05-21T03:13:56;25.40;;;16.40;;
44662;SDS011;30381;52.754;18.258;2023-05-21T03:16:32;24.60;;;15.70;;
44662;SDS011;30381;52.754;18.258;2023-05-21T03:19:01;22.90;;;15.90;;
44662;SDS011;30381;52.754;18.258;2023-05-21T03:21:28;27.20;;;16.10;;
44662;SDS011;30381;52.754;18.258;2023-05-21T03:23:56;27.40;;;16.20;;
44662;SDS011;30381;52.754;18.258;2023-05-21T03:26:24;22.30;;;15.70;;
44662;SDS011;30381;52.754;18.258;2023-05-21T03:28:53;28.30;;;15.60;;
44662;SDS011;30381;52.754;18.258;2023-05-21T03:31:20;23.50;;;15.40;;
44662;SDS011;30381;52.754;18.258;2023-05-21T03:33:47;24.90;;;15.10;;
44662;SDS011;30381;52.754;18.258;2023-05-21T03:36:15;24.40;;;15.70;;
44662;SDS011;30381;52.754;18.258;2023-05-21T03:38:42;24.20;;;13.70;;
44662;SDS011;30381;52.754;18.258;2023-05-21T03:41:11;19.40;;;12.80;;
44662;SDS011;30381;52.754;18.258;2023-05-21T03:43:38;19.20;;;11.50;;
44662;SDS011;30381;52.754;18.258;2023-05-21T03:46:05;19.70;;;12.00;;
44662;SDS011;30381;52.754;18.258;2023-05-21T03:48:33;18.00;;;10.80;;
44662;SDS011;30381;52.754;18.258;2023-05-21T03:51:08;21.30;;;10.70;;
44662;SDS011;30381;52.754;18.258;2023-05-21T03:53:35;17.40;;;10.10;;
44662;SDS011;30381;52.754;18.258;2023-05-21T03:56:03;18.60;;;10.70;;
44662;SDS011;30381;52.754;18.258;2023-05-21T03:58:30;17.00;;;10.60;;
44662;SDS011;30381;52.754;18.258;2023-05-21T04:00:59;17.50;;;10.30;;
44662;SDS011;30381;52.754;18.258;2023-05-21T04:03:30;15.80;;;9.30;;
44662;SDS011;30381;52.754;18.258;2023-05-21T04:06:01;15.50;;;9.80;;
44662;SDS011;30381;52.754;18.258;2023-05-21T04:08:34;17.80;;;10.60;;
44662;SDS011;30381;52.754;18.258;2023-05-21T04:11:08;19.80;;;11.40;;
44662;SDS011;30381;52.754;18.258;2023-05-21T04:13:38;20.20;;;11.40;;
44662;SDS011;30381;52.754;18.258;2023-05-21T04:16:54;20.00;;;12.00;;
44662;SDS011;30381;52.754;18.258;2023-05-21T04:19:24;16.90;;;10.70;;
44662;SDS011;30381;52.754;18.258;2023-05-21T04:21:52;18.40;;;11.20;;
44662;SDS011;30381;52.754;18.258;2023-05-21T04:24:31;18.60;;;10.90;;
44662;SDS011;30381;52.754;18.258;2023-05-21T04:27:00;16.60;;;10.40;;
44662;SDS011;30381;52.754;18.258;2023-05-21T04:38:04;17.50;;;10.50;;
44662;SDS011;30381;52.754;18.258;2023-05-21T04:40:39;14.00;;;9.90;;
44662;SDS011;30381;52.754;18.258;2023-05-21T04:43:07;15.60;;;10.00;;
44662;SDS011;30381;52.754;18.258;2023-05-21T04:45:34;18.30;;;10.10;;
44662;SDS011;30381;52.754;18.258;2023-05-21T04:53:39;12.90;;;8.50;;
44662;SDS011;30381;52.754;18.258;2023-05-21T04:56:06;15.10;;;9.80;;
44662;SDS011;30381;52.754;18.258;2023-05-21T04:58:35;14.20;;;9.20;;
44662;SDS011;30381;52.754;18.258;2023-05-21T05:01:06;17.80;;;11.30;;
44662;SDS011;30381;52.754;18.258;2023-05-21T05:03:37;15.10;;;10.20;;
44662;SDS011;30381;52.754;18.258;2023-05-21T05:08:33;13.70;;;7.90;;
44662;SDS011;30381;52.754;18.258;2023-05-21T05:11:22;15.10;;;9.40;;
44662;SDS011;30381;52.754;18.258;2023-05-21T05:13:51;14.40;;;9.40;;
44662;SDS011;30381;52.754;18.258;2023-05-21T05:16:20;13.50;;;9.00;;
44662;SDS011;30381;52.754;18.258;2023-05-21T05:22:27;15.40;;;8.70;;
44662;SDS011;30381;52.754;18.258;2023-05-21T05:25:06;13.80;;;9.00;;
44662;SDS011;30381;52.754;18.258;2023-05-21T05:27:36;13.20;;;8.40;;
44662;SDS011;30381;52.754;18.258;2023-05-21T05:30:03;14.80;;;9.20;;
44662;SDS011;30381;52.754;18.258;2023-05-21T05:32:39;12.10;;;8.10;;
44662;SDS011;30381;52.754;18.258;2023-05-21T05:38:00;13.50;;;8.00;;
44662;SDS011;30381;52.754;18.258;2023-05-21T05:47:38;13.40;;;8.60;;
44662;SDS011;30381;52.754;18.258;2023-05-21T05:50:06;15.20;;;7.90;;
44662;SDS011;30381;52.754;18.258;2023-05-21T05:52:33;12.30;;;6.80;;
44662;SDS011;30381;52.754;18.258;2023-05-21T05:55:00;13.30;;;7.60;;
44662;SDS011;30381;52.754;18.258;2023-05-21T05:58:13;10.40;;;6.50;;
44662;SDS011;30381;52.754;18.258;2023-05-21T06:00:40;11.40;;;6.50;;
44662;SDS011;30381;52.754;18.258;2023-05-21T06:03:07;10.00;;;6.30;;
44662;SDS011;30381;52.754;18.258;2023-05-21T06:05:34;13.20;;;6.90;;
44662;SDS011;30381;52.754;18.258;2023-05-21T06:08:00;10.20;;;6.20;;
44662;SDS011;30381;52.754;18.258;2023-05-21T06:10:28;10.70;;;6.00;;
44662;SDS011;30381;52.754;18.258;2023-05-21T06:13:02;10.00;;;5.20;;
44662;SDS011;30381;52.754;18.258;2023-05-21T06:15:32;12.20;;;5.80;;
44662;SDS011;30381;52.754;18.258;2023-05-21T06:17:59;9.80;;;5.10;;
44662;SDS011;30381;52.754;18.258;2023-05-21T06:20:25;10.10;;;5.00;;
44662;SDS011;30381;52.754;18.258;2023-05-21T06:22:54;12.70;;;6.20;;
44662;SDS011;30381;52.754;18.258;2023-05-21T06:25:20;8.90;;;5.50;;
44662;SDS011;30381;52.754;18.258;2023-05-21T06:27:51;10.00;;;5.40;;
44662;SDS011;30381;52.754;18.258;2023-05-21T06:30:49;10.30;;;4.50;;
44662;SDS011;30381;52.754;18.258;2023-05-21T08:31:22;6.50;;;2.60;;
44662;SDS011;30381;52.754;18.258;2023-05-21T16:52:14;8.20;;;3.10;;
44662;SDS011;30381;52.754;18.258;2023-05-21T16:55:43;7.00;;;2.90;;
44662;SDS011;30381;52.754;18.258;2023-05-21T18:22:52;9.90;;;3.50;;
44662;SDS011;30381;52.754;18.258;2023-05-21T20:41:02;15.10;;;7.40;;
44662;SDS011;30381;52.754;18.258;2023-05-21T20:44:38;14.50;;;6.70;;
44662;SDS011;30381;52.754;18.258;2023-05-21T20:47:58;13.60;;;6.90;;
44662;SDS011;30381;52.754;18.258;2023-05-21T20:50:57;14.10;;;6.60;;
44662;SDS011;30381;52.754;18.258;2023-05-21T20:53:57;16.60;;;7.00;;
44662;SDS011;30381;52.754;18.258;2023-05-21T21:16:59;13.90;;;7.10;;
44662;SDS011;30381;52.754;18.258;2023-05-21T21:19:57;18.00;;;7.80;;
44662;SDS011;30381;52.754;18.258;2023-05-21T21:22:52;14.90;;;6.60;;
44662;SDS011;30381;52.754;18.258;2023-05-21T21:26:14;14.40;;;6.90;;
44662;SDS011;30381;52.754;18.258;2023-05-21T21:40:58;13.50;;;6.50;;
44662;SDS011;30381;52.754;18.258;2023-05-21T22:18:25;13.30;;;6.30;;
44662;SDS011;30381;52.754;18.258;2023-05-21T22:21:57;14.40;;;7.30;;
44662;SDS011;30381;52.754;18.258;2023-05-21T22:24:56;14.20;;;6.80;;
44662;SDS011;30381;52.754;18.258;2023-05-21T22:27:58;13.20;;;6.70;;
44662;SDS011;30381;52.754;18.258;2023-05-21T22:30:34;12.70;;;7.00;;
44662;SDS011;30381;52.754;18.258;2023-05-21T22:33:29;16.20;;;7.90;;
44662;SDS011;30381;52.754;18.258;2023-05-21T22:38:49;13.30;;;7.00;;
44662;SDS011;30381;52.754;18.258;2023-05-21T22:47:47;15.80;;;7.60;;
44662;SDS011;30381;52.754;18.258;2023-05-21T22:51:05;14.60;;;7.50;;
44662;SDS011;30381;52.754;18.258;2023-05-21T23:18:34;15.30;;;7.70;;
44662;SDS011;30381;52.754;18.258;2023-05-21T23:32:58;14.50;;;7.20;;
44662;SDS011;30381;52.754;18.258;2023-05-21T23:36:20;13.40;;;7.20;;
44662;SDS011;30381;52.754;18.258;2023-05-21T23:53:32;13.40;;;7.00;;
44662;SDS011;30381;52.754;18.258;2023-05-21T23:56:19;16.20;;;7.30;;
44662;SDS011;30381;52.754;18.258;2023-05-21T23:59:01;16.80;;;7.00;;
